Kinross, MI

5:34 PM EDT on May 30, 2015 (GMT -0400)
Chippewa County International | | Change Station
CLOSE
Current Station
Airport
Location: Chippewa,
Elevation: 801 ft
Nearby Weather Stations

Elev 801 ft 46.25 °N, 84.48 °W | Updated 19 minutes ago

Mostly Cloudy
Mostly Cloudy
48 °F
Feels Like 48 °F
N
23
Wind Variable Wind from NNW
Gusts 30 mph

Today
High -- | Low -- °F
--% Chance of Precip.
Yesterday
High -- | Low -- °F
Precip. -- in
5:51 AM 9:20 PM
Waxing Gibbous, 92% visible
Pressure 30.15 in
Visibility 10.0 miles
Clouds Clear
Dew Point 37 °F
Humidity 66%
Rainfall 0.00 in
Snow Depth Not available.
UV 5 out of 12
Pollen 1.90 out of 12
Air Quality Not available.
Flu Activity Sporadic
METAR KCIU 302115Z AUTO 33020G26KT 10SM CLR 09/03 A3015 RMK AO1

More Conditions Fewer Conditions

Pressure 30.15 in
Visibility 10.0 miles
Clouds Clear
Dew Point 37 °F
Humidity 66%
Rainfall 0.00 in
Snow Depth Not available.
UV 5 out of 12
Pollen 1.90 out of 12
Air Quality Not available.
Flu Activity Sporadic
METAR KCIU 302115Z AUTO 33020G26KT 10SM CLR 09/03 A3015 RMK AO1

More Conditions Fewer Conditions

Nowcast | as of 5:00 PM EDT on May 30, 2015

At 6 PM...partly cloudy. Temperature 49. Northwest winds 16 mph. At 8 PM...partly cloudy. Temperature 47. Northwest winds 14 mph. At 10 PM...partly cloudy. Temperature 45. North winds 9 mph. At 12 am...partly cloudy. Temperature 43. North winds 7 mph.

×

10-Day Weather Forecast

Almanac

Astronomy

May. 30, 2015 Rise Set
Actual Time
Civil Twilight
Nautical Twilight
Astronomical Twilight
Moon
Length of Visible Light
Length of Day
Tomorrow will be .
, % of the Moon is Illuminated

Today's Extremes

State Highs State Lows

Community

WunderPhotos

Upload Photos

1,825,606 photos uploaded!

WunderBlogs® & News

Nearby

Air Quality

  Air Quality AQ Index Pollutant
Not available.

Snow Depth

Station Depth Elevation

Earthquake Activity

City Distance Mag. Time & Date
Minimum magnitude displayed is 2.5.

Coastal Water Temperatures

Place Temperature

Stations

Nearby Weather Stations

Station Location Temp. Windchill Dew Point Humidity Wind Precip. Elev Updated Type